createdAt,value
2018-03-19T00:01:34.047Z,-1.30
2018-03-19T00:04:01.497Z,-1.20
2018-03-19T00:06:28.957Z,-1.30
2018-03-19T00:08:56.537Z,-1.30
2018-03-19T00:11:24.030Z,-1.40
2018-03-19T00:13:51.504Z,-1.30
2018-03-19T00:16:18.961Z,-1.40
2018-03-19T00:18:46.444Z,-1.40
2018-03-19T00:21:13.880Z,-1.40
2018-03-19T00:23:41.354Z,-1.40
2018-03-19T00:26:08.803Z,-1.40
2018-03-19T00:28:36.261Z,-1.40
2018-03-19T00:31:03.730Z,-1.30
2018-03-19T00:33:31.171Z,-1.40
2018-03-19T00:35:58.628Z,-1.30
2018-03-19T00:38:26.081Z,-1.40
2018-03-19T00:40:53.555Z,-1.40
2018-03-19T00:43:21.001Z,-1.30
2018-03-19T00:45:48.464Z,-1.40
2018-03-19T00:48:15.949Z,-1.40
2018-03-19T00:50:43.406Z,-1.30
2018-03-19T00:53:10.849Z,-1.40
2018-03-19T00:55:38.309Z,-1.30
2018-03-19T00:58:05.770Z,-1.30
2018-03-19T01:00:33.244Z,-1.40
2018-03-19T01:03:00.727Z,-1.40
2018-03-19T01:05:28.169Z,-1.40
2018-03-19T01:07:56.404Z,-1.30
2018-03-19T01:10:23.854Z,-1.30
2018-03-19T01:12:51.310Z,-1.30
2018-03-19T01:15:18.774Z,-1.30
2018-03-19T01:17:46.228Z,-1.30
2018-03-19T01:20:13.674Z,-1.30
2018-03-19T01:22:41.133Z,-1.30
2018-03-19T01:25:08.585Z,-1.40
2018-03-19T01:27:36.048Z,-1.40
2018-03-19T01:30:03.505Z,-1.30
2018-03-19T01:32:30.976Z,-1.40
2018-03-19T01:34:58.416Z,-1.30
2018-03-19T01:37:25.878Z,-1.30
2018-03-19T01:39:53.332Z,-1.30
2018-03-19T01:42:20.789Z,-1.30
2018-03-19T01:44:48.247Z,-1.20
2018-03-19T01:47:15.677Z,-1.30
2018-03-19T01:49:43.144Z,-1.30
2018-03-19T01:52:10.579Z,-1.40
2018-03-19T01:54:38.793Z,-1.40
2018-03-19T01:57:06.254Z,-1.40
2018-03-19T01:59:33.708Z,-1.40
2018-03-19T02:02:01.153Z,-1.30
2018-03-19T02:04:28.608Z,-1.40
2018-03-19T02:06:56.048Z,-1.40
2018-03-19T02:09:23.492Z,-1.40
2018-03-19T02:11:51.717Z,-1.40
2018-03-19T02:14:19.171Z,-1.40
2018-03-19T02:16:46.617Z,-1.30
2018-03-19T02:19:14.052Z,-1.30
2018-03-19T02:21:41.504Z,-1.30
2018-03-19T02:24:09.720Z,-1.30
2018-03-19T02:26:37.178Z,-1.30
2018-03-19T02:29:04.640Z,-1.20
2018-03-19T02:31:32.066Z,-1.30
2018-03-19T02:33:59.516Z,-1.30
2018-03-19T02:36:26.965Z,-1.40
2018-03-19T02:38:55.200Z,-1.30
2018-03-19T02:41:22.668Z,-1.30
2018-03-19T02:43:50.115Z,-1.30
2018-03-19T02:46:17.574Z,-1.30
2018-03-19T02:48:45.032Z,-1.20
2018-03-19T02:51:12.484Z,-1.10
2018-03-19T02:53:39.937Z,-1.30
2018-03-19T02:56:07.384Z,-1.30
2018-03-19T02:58:34.832Z,-1.30
2018-03-19T03:01:02.293Z,-1.20
2018-03-19T03:03:29.746Z,-1.20
2018-03-19T03:05:57.187Z,-1.30
2018-03-19T03:08:24.616Z,-1.30
2018-03-19T03:10:52.853Z,-1.30
2018-03-19T03:13:20.308Z,-1.30
2018-03-19T03:15:47.762Z,-1.30
2018-03-19T03:18:15.217Z,-1.20
2018-03-19T03:20:42.665Z,-1.20
2018-03-19T03:23:10.132Z,-1.20
2018-03-19T03:25:37.592Z,-1.20
2018-03-19T03:28:05.039Z,-1.20
2018-03-19T03:30:32.497Z,-1.10
2018-03-19T03:32:59.943Z,-1.20
2018-03-19T03:35:27.386Z,-1.20
2018-03-19T03:37:54.829Z,-1.20
2018-03-19T03:40:23.065Z,-1.10
2018-03-19T03:42:50.520Z,-1.10
2018-03-19T03:45:17.992Z,-1.10
2018-03-19T03:47:45.438Z,-1.10
2018-03-19T03:50:12.891Z,-1.20
2018-03-19T03:52:40.349Z,-1.20
2018-03-19T03:55:07.803Z,-1.20
2018-03-19T03:57:35.254Z,-1.40
2018-03-19T04:00:02.705Z,-1.40
2018-03-19T04:02:30.166Z,-1.40
2018-03-19T04:04:57.616Z,-1.40
2018-03-19T04:07:25.090Z,-1.40
2018-03-19T04:09:52.556Z,-1.40
2018-03-19T04:12:20.003Z,-1.30
2018-03-19T04:14:47.444Z,-1.30
2018-03-19T04:17:14.888Z,-1.40
2018-03-19T04:19:42.348Z,-1.40
2018-03-19T04:22:10.813Z,-1.40
2018-03-19T04:24:38.266Z,-1.50
2018-03-19T04:27:06.489Z,-1.50
2018-03-19T04:29:33.924Z,-1.50
2018-03-19T04:32:01.376Z,-1.50
2018-03-19T04:34:28.816Z,-1.50
2018-03-19T04:36:56.275Z,-1.40
2018-03-19T04:39:23.771Z,-1.30
2018-03-19T04:41:51.219Z,-1.40
2018-03-19T04:44:18.659Z,-1.50
2018-03-19T04:46:46.101Z,-1.60
2018-03-19T04:49:13.575Z,-1.60
2018-03-19T04:51:41.020Z,-1.60
2018-03-19T04:54:08.492Z,-1.50
2018-03-19T04:56:35.948Z,-1.50
2018-03-19T04:59:03.400Z,-1.40
2018-03-19T05:01:30.846Z,-1.40
2018-03-19T05:03:59.060Z,-1.50
2018-03-19T05:06:26.513Z,-1.50
2018-03-19T05:08:53.974Z,-1.50
2018-03-19T05:11:21.424Z,-1.60
2018-03-19T05:13:48.886Z,-1.60
2018-03-19T05:16:16.326Z,-1.60
2018-03-19T05:18:43.778Z,-1.60
2018-03-19T05:21:11.231Z,-1.60
2018-03-19T05:23:38.696Z,-1.70
2018-03-19T05:26:06.136Z,-1.70
2018-03-19T05:28:34.352Z,-1.70
2018-03-19T05:31:02.564Z,-1.70
2018-03-19T05:33:30.008Z,-1.70
2018-03-19T05:35:57.466Z,-1.60
2018-03-19T05:38:24.922Z,-1.70
2018-03-19T05:40:52.383Z,-1.60
2018-03-19T05:43:19.869Z,-1.70
2018-03-19T05:45:48.088Z,-1.80
2018-03-19T05:48:15.541Z,-1.80
2018-03-19T05:50:43.004Z,-1.80
2018-03-19T05:53:11.224Z,-1.90
2018-03-19T05:55:39.446Z,-1.80
2018-03-19T05:58:06.900Z,-1.80
2018-03-19T06:00:34.348Z,-1.70
2018-03-19T06:03:01.792Z,-1.70
2018-03-19T06:05:29.241Z,-1.70
2018-03-19T06:07:57.465Z,-1.70
2018-03-19T06:10:24.949Z,-1.70
2018-03-19T06:12:52.344Z,-1.80
2018-03-19T06:15:19.800Z,-1.80
2018-03-19T06:17:47.249Z,-1.80
2018-03-19T06:20:15.477Z,-1.80
2018-03-19T06:22:42.926Z,-1.80
2018-03-19T06:25:10.389Z,-1.70
2018-03-19T06:27:37.856Z,-1.70
2018-03-19T06:30:05.312Z,-1.60
2018-03-19T06:32:32.821Z,-1.70
2018-03-19T06:35:00.261Z,-1.60
2018-03-19T06:37:28.498Z,-1.80
2018-03-19T06:39:55.945Z,-1.80
2018-03-19T06:42:23.404Z,-1.80
2018-03-19T06:44:50.852Z,-2.00
2018-03-19T06:47:18.310Z,-1.90
2018-03-19T06:49:45.792Z,-2.00
2018-03-19T06:52:13.222Z,-1.90
2018-03-19T06:54:40.744Z,-1.90
2018-03-19T06:57:09.000Z,-1.80
2018-03-19T06:59:36.486Z,-1.90
2018-03-19T07:02:04.704Z,-1.80
2018-03-19T07:04:32.153Z,-1.80
2018-03-19T07:06:59.598Z,-1.90
2018-03-19T07:09:27.062Z,-1.80
2018-03-19T07:11:54.594Z,-1.90
2018-03-19T07:14:22.041Z,-1.90
2018-03-19T07:16:50.256Z,-2.00
2018-03-19T07:19:17.731Z,-2.00
2018-03-19T07:21:45.172Z,-1.90
2018-03-19T07:24:12.628Z,-1.90
2018-03-19T07:26:40.065Z,-1.90
2018-03-19T07:29:07.541Z,-2.00
2018-03-19T07:31:34.993Z,-1.90
2018-03-19T07:34:02.452Z,-1.90
2018-03-19T07:36:29.957Z,-1.80
2018-03-19T07:38:57.389Z,-1.70
2018-03-19T07:41:24.847Z,-1.70
2018-03-19T07:43:52.350Z,-1.70
2018-03-19T07:46:20.563Z,-1.60
2018-03-19T07:48:48.082Z,-1.70
2018-03-19T07:51:16.325Z,-1.60
2018-03-19T07:53:43.774Z,-1.60
2018-03-19T07:56:11.213Z,-1.50
2018-03-19T07:58:38.673Z,-1.50
2018-03-19T08:01:06.140Z,-1.50
2018-03-19T08:03:33.725Z,-1.50
2018-03-19T08:06:01.166Z,-1.40
2018-03-19T08:08:28.622Z,-1.40
2018-03-19T08:10:56.832Z,-1.40
2018-03-19T08:13:25.032Z,-1.30
2018-03-19T08:15:52.478Z,-1.30
2018-03-19T08:18:19.933Z,-1.20
2018-03-19T08:20:47.383Z,-1.00
2018-03-19T08:23:15.571Z,-0.70
2018-03-19T08:25:44.042Z,-0.70
2018-03-19T08:28:12.272Z,-0.50
2018-03-19T08:30:39.716Z,-0.50
2018-03-19T08:33:07.161Z,-0.60
2018-03-19T08:35:34.622Z,-0.70
2018-03-19T08:38:02.097Z,-0.70
2018-03-19T08:40:29.554Z,-0.60
2018-03-19T08:42:57.003Z,-0.60
2018-03-19T08:45:24.442Z,-0.40
2018-03-19T08:47:51.892Z,-0.30
2018-03-19T08:50:19.352Z,-0.20
2018-03-19T08:52:46.809Z,-0.10
2018-03-19T08:55:14.252Z,0.10
2018-03-19T08:57:41.704Z,0.30
2018-03-19T09:00:09.929Z,0.70
2018-03-19T09:02:37.372Z,0.70
2018-03-19T09:05:04.812Z,0.80
2018-03-19T09:07:32.261Z,1.20
2018-03-19T09:09:59.727Z,1.40
2018-03-19T09:12:27.166Z,1.70
2018-03-19T09:14:55.383Z,1.70
2018-03-19T09:17:22.827Z,1.70
2018-03-19T09:19:50.334Z,1.90
2018-03-19T09:22:17.721Z,2.10
2018-03-19T09:24:45.167Z,2.20
2018-03-19T09:27:13.391Z,1.90
2018-03-19T09:29:40.833Z,1.80
2018-03-19T09:32:08.306Z,2.10
2018-03-19T09:34:35.757Z,2.00
2018-03-19T09:37:03.212Z,2.30
2018-03-19T09:39:30.673Z,2.60
2018-03-19T09:41:58.124Z,2.60
2018-03-19T09:44:25.582Z,2.60
2018-03-19T09:46:53.032Z,2.30
2018-03-19T09:49:20.485Z,2.80
2018-03-19T09:51:47.932Z,3.20
2018-03-19T09:54:15.376Z,3.70
2018-03-19T09:56:43.586Z,3.90
2018-03-19T09:59:11.036Z,3.90
2018-03-19T10:01:38.493Z,3.70
2018-03-19T10:04:05.961Z,3.70
2018-03-19T10:06:33.393Z,3.20
2018-03-19T10:09:00.848Z,3.40
2018-03-19T10:11:28.283Z,2.70
2018-03-19T10:13:56.513Z,3.20
2018-03-19T10:16:23.963Z,3.10
2018-03-19T10:18:51.414Z,3.40
2018-03-19T10:21:18.869Z,3.60
2018-03-19T10:23:46.316Z,3.70
2018-03-19T10:26:13.768Z,3.90
2018-03-19T10:28:41.203Z,4.30
2018-03-19T10:31:09.418Z,4.40
2018-03-19T10:33:36.867Z,4.40
2018-03-19T10:36:04.314Z,4.20
2018-03-19T10:38:31.749Z,4.20
2018-03-19T10:41:00.010Z,4.50
2018-03-19T10:43:28.724Z,4.50
2018-03-19T10:45:57.098Z,4.30
2018-03-19T10:48:25.304Z,4.40
2018-03-19T10:50:52.746Z,4.40
2018-03-19T10:53:20.268Z,4.60
2018-03-19T10:55:47.800Z,4.80
2018-03-19T10:58:15.218Z,4.50
2018-03-19T11:00:42.656Z,4.80
2018-03-19T11:03:10.868Z,4.70
2018-03-19T11:05:44.049Z,4.70
2018-03-19T11:08:11.491Z,4.90
2018-03-19T11:10:38.967Z,4.80
2018-03-19T11:13:06.386Z,4.80
2018-03-19T11:15:33.839Z,5.10
2018-03-19T11:18:01.272Z,5.40
2018-03-19T11:20:28.792Z,5.40
2018-03-19T11:22:56.273Z,5.60
2018-03-19T11:25:23.704Z,5.10
2018-03-19T11:27:51.183Z,4.90
2018-03-19T11:30:18.604Z,5.10
2018-03-19T11:32:46.812Z,4.70
2018-03-19T11:35:14.259Z,4.70
2018-03-19T11:37:42.879Z,4.70
2018-03-19T11:40:10.368Z,4.50
2018-03-19T11:42:38.586Z,4.50
2018-03-19T11:45:06.021Z,4.50
2018-03-19T11:47:33.476Z,4.80
2018-03-19T11:50:01.033Z,5.00
2018-03-19T11:52:28.492Z,5.10
2018-03-19T11:54:56.759Z,5.00
2018-03-19T11:57:24.979Z,4.90
2018-03-19T11:59:52.416Z,4.80
2018-03-19T12:02:19.864Z,4.50
2018-03-19T12:04:47.309Z,4.20
2018-03-19T12:07:15.529Z,4.20
2018-03-19T12:09:42.972Z,4.20
2018-03-19T12:12:10.409Z,4.20
2018-03-19T12:14:37.943Z,4.10
2018-03-19T12:17:06.161Z,4.20
2018-03-19T12:19:33.727Z,4.30
2018-03-19T12:22:01.526Z,4.40
2018-03-19T12:24:28.974Z,4.40
2018-03-19T12:26:56.409Z,4.00
2018-03-19T12:29:23.858Z,4.20
2018-03-19T12:31:51.291Z,4.20
2018-03-19T12:34:18.732Z,4.40
2018-03-19T12:36:46.941Z,4.00
2018-03-19T12:39:14.406Z,4.00
2018-03-19T12:41:42.302Z,4.00
2018-03-19T12:44:09.757Z,4.00
2018-03-19T12:46:37.376Z,3.90
2018-03-19T12:49:05.020Z,4.10
2018-03-19T12:51:32.470Z,4.20
2018-03-19T12:54:00.724Z,4.10
2018-03-19T12:56:28.165Z,4.20
2018-03-19T12:58:55.609Z,4.10
2018-03-19T13:01:23.066Z,4.00
2018-03-19T13:03:50.515Z,4.00
2018-03-19T13:06:17.958Z,3.70
2018-03-19T13:08:45.408Z,3.70
2018-03-19T13:11:12.960Z,3.80
2018-03-19T13:13:40.410Z,3.80
2018-03-19T13:16:08.619Z,3.70
2018-03-19T13:18:36.065Z,3.70
2018-03-19T13:21:03.517Z,3.80
2018-03-19T13:23:31.079Z,3.70
2018-03-19T13:25:59.275Z,3.50
2018-03-19T13:28:26.719Z,3.50
2018-03-19T13:30:54.164Z,3.50
2018-03-19T13:33:21.610Z,3.70
2018-03-19T13:35:49.831Z,3.50
2018-03-19T13:38:17.294Z,3.50
2018-03-19T13:40:44.760Z,3.40
2018-03-19T13:43:12.218Z,3.40
2018-03-19T13:45:40.494Z,3.50
2018-03-19T13:48:09.019Z,3.50
2018-03-19T13:50:36.463Z,3.60
2018-03-19T13:53:04.680Z,3.40
2018-03-19T13:55:32.219Z,3.40
2018-03-19T13:57:59.673Z,3.20
2018-03-19T14:00:27.113Z,3.00
2018-03-19T14:02:55.526Z,3.30
2018-03-19T14:05:23.147Z,3.30
2018-03-19T14:07:50.992Z,3.30
2018-03-19T14:10:18.843Z,3.20
2018-03-19T14:12:46.564Z,3.00
2018-03-19T14:15:17.690Z,3.00
2018-03-19T14:17:46.228Z,3.00
2018-03-19T14:20:14.728Z,3.10
2018-03-19T14:22:42.227Z,3.00
2018-03-19T14:25:10.430Z,3.00
2018-03-19T14:27:37.922Z,2.90
2018-03-19T14:30:05.323Z,3.10
2018-03-19T14:32:32.786Z,3.10
2018-03-19T14:35:00.254Z,3.10
2018-03-19T14:37:27.696Z,3.10
2018-03-19T14:39:55.151Z,3.20
2018-03-19T14:42:22.589Z,3.30
2018-03-19T14:44:50.817Z,3.20
2018-03-19T14:47:18.257Z,3.20
2018-03-19T14:49:45.743Z,3.20
2018-03-19T14:52:13.136Z,3.20
2018-03-19T14:54:41.345Z,3.20
2018-03-19T14:57:08.877Z,3.20
2018-03-19T14:59:36.313Z,3.10
2018-03-19T15:02:03.749Z,3.10
2018-03-19T15:04:31.215Z,3.10
2018-03-19T15:06:58.627Z,3.00
2018-03-19T15:09:26.088Z,2.90
2018-03-19T15:11:53.614Z,3.00
2018-03-19T15:14:21.844Z,3.00
2018-03-19T15:16:49.280Z,3.00
2018-03-19T15:19:16.713Z,3.10
2018-03-19T15:21:44.950Z,3.20
2018-03-19T15:24:12.391Z,3.10
2018-03-19T15:26:39.851Z,3.20
2018-03-19T15:29:07.277Z,3.20
2018-03-19T15:31:34.717Z,3.10
2018-03-19T15:34:02.933Z,3.00
2018-03-19T15:36:30.390Z,3.00
2018-03-19T15:38:57.837Z,3.00
2018-03-19T15:41:25.361Z,3.00
2018-03-19T15:43:53.583Z,3.00
2018-03-19T15:46:21.017Z,3.00
2018-03-19T15:48:48.446Z,3.10
2018-03-19T15:51:16.670Z,3.10
2018-03-19T15:53:44.106Z,3.00
2018-03-19T15:56:11.560Z,3.10
2018-03-19T15:58:38.996Z,3.20
2018-03-19T16:01:07.217Z,3.10
2018-03-19T16:03:34.654Z,3.10
2018-03-19T16:06:02.092Z,3.20
2018-03-19T16:08:29.527Z,3.10
2018-03-19T16:10:57.746Z,3.10
2018-03-19T16:13:28.238Z,3.10
2018-03-19T16:15:55.732Z,3.00
2018-03-19T16:18:23.919Z,2.80
2018-03-19T16:20:51.341Z,2.80
2018-03-19T16:23:18.788Z,2.90
2018-03-19T16:25:46.997Z,2.80
2018-03-19T16:28:14.446Z,2.80
2018-03-19T16:30:41.881Z,2.90
2018-03-19T16:33:10.139Z,3.00
2018-03-19T16:35:37.561Z,2.90
2018-03-19T16:38:05.009Z,3.00
2018-03-19T16:40:32.459Z,3.00
2018-03-19T16:42:59.909Z,2.90
2018-03-19T16:45:27.333Z,2.80
2018-03-19T16:47:55.533Z,2.70
2018-03-19T16:50:22.964Z,2.70
2018-03-19T16:52:51.192Z,2.60
2018-03-19T16:55:18.706Z,2.60
2018-03-19T16:57:47.158Z,2.60
2018-03-19T17:00:14.860Z,2.60
2018-03-19T17:02:42.595Z,2.50
2018-03-19T17:05:11.045Z,2.50
2018-03-19T17:07:38.705Z,2.50
2018-03-19T17:10:06.279Z,2.50
2018-03-19T17:12:34.141Z,2.30
2018-03-19T17:15:01.698Z,2.20
2018-03-19T17:17:29.428Z,2.30
2018-03-19T17:19:57.154Z,2.20
2018-03-19T17:22:24.782Z,2.20
2018-03-19T17:24:53.224Z,2.30
2018-03-19T17:27:20.881Z,2.20
2018-03-19T17:29:48.534Z,2.20
2018-03-19T17:32:16.199Z,2.10
2018-03-19T17:34:43.693Z,2.00
2018-03-19T17:37:11.134Z,2.00
2018-03-19T17:39:38.576Z,1.90
2018-03-19T17:42:06.024Z,1.80
2018-03-19T17:44:34.316Z,1.80
2018-03-19T17:47:02.516Z,1.80
2018-03-19T17:49:30.048Z,1.80
2018-03-19T17:51:58.268Z,1.70
2018-03-19T17:54:25.719Z,1.70
2018-03-19T17:56:53.387Z,1.60
2018-03-19T17:59:20.838Z,1.60
2018-03-19T18:01:48.289Z,1.60
2018-03-19T18:04:15.721Z,1.60
2018-03-19T18:06:46.756Z,1.60
2018-03-19T18:09:14.193Z,1.50
2018-03-19T18:11:43.444Z,1.30
2018-03-19T18:14:10.968Z,1.30
2018-03-19T18:16:38.435Z,1.30
2018-03-19T18:19:05.902Z,1.20
2018-03-19T18:21:33.355Z,1.20
2018-03-19T18:24:00.803Z,1.20
2018-03-19T18:26:28.260Z,1.20
2018-03-19T18:28:56.470Z,1.00
2018-03-19T18:31:23.932Z,1.00
2018-03-19T18:33:51.530Z,1.00
2018-03-19T18:36:19.755Z,1.00
2018-03-19T18:38:47.200Z,1.00
2018-03-19T18:41:14.785Z,1.00
2018-03-19T18:43:42.251Z,1.00
2018-03-19T18:46:10.133Z,1.00
2018-03-19T18:48:38.607Z,1.00
2018-03-19T18:51:06.070Z,0.90
2018-03-19T18:53:33.516Z,0.90
2018-03-19T18:56:00.961Z,0.90
2018-03-19T18:58:28.416Z,0.90
2018-03-19T19:00:55.872Z,0.90
2018-03-19T19:03:23.319Z,0.80
2018-03-19T19:05:50.766Z,0.70
2018-03-19T19:08:18.215Z,0.70
2018-03-19T19:10:45.660Z,0.70
2018-03-19T19:13:13.197Z,0.60
2018-03-19T19:15:40.638Z,0.60
2018-03-19T19:18:08.088Z,0.50
2018-03-19T19:20:35.530Z,0.50
2018-03-19T19:23:03.003Z,0.40
2018-03-19T19:25:30.452Z,0.40
2018-03-19T19:27:57.908Z,0.40
2018-03-19T19:30:25.357Z,0.30
2018-03-19T19:32:52.793Z,0.30
2018-03-19T19:35:20.252Z,0.20
2018-03-19T19:37:47.684Z,0.10
2018-03-19T19:40:15.898Z,0.20
2018-03-19T19:42:43.355Z,0.20
2018-03-19T19:45:10.929Z,0.10
2018-03-19T19:47:38.361Z,0.20
2018-03-19T19:50:09.176Z,0.10
2018-03-19T19:52:37.377Z,0.10
2018-03-19T19:55:04.828Z,0.00
2018-03-19T19:57:32.286Z,0.00
2018-03-19T19:59:59.741Z,-0.10
2018-03-19T20:02:27.195Z,-0.10
2018-03-19T20:04:54.664Z,-0.10
2018-03-19T20:07:22.108Z,-0.10
2018-03-19T20:09:49.571Z,-0.10
2018-03-19T20:12:17.035Z,-0.10
2018-03-19T20:14:44.551Z,-0.20
2018-03-19T20:17:12.792Z,-0.20
2018-03-19T20:19:40.272Z,-0.20
2018-03-19T20:22:07.736Z,-0.20
2018-03-19T20:24:35.216Z,-0.20
2018-03-19T20:27:03.449Z,-0.30
2018-03-19T20:29:30.912Z,-0.30
2018-03-19T20:31:58.340Z,-0.30
2018-03-19T20:34:25.828Z,-0.20
2018-03-19T20:36:53.285Z,-0.20
2018-03-19T20:39:20.722Z,-0.30
2018-03-19T20:41:48.190Z,-0.20
2018-03-19T20:44:15.648Z,-0.20
2018-03-19T20:46:43.102Z,-0.30
2018-03-19T20:49:10.571Z,-0.20
2018-03-19T20:51:38.018Z,-0.20
2018-03-19T20:54:05.464Z,-0.20
2018-03-19T20:56:32.917Z,-0.20
2018-03-19T20:59:00.371Z,-0.30
2018-03-19T21:01:27.864Z,-0.30
2018-03-19T21:03:55.256Z,-0.30
2018-03-19T21:06:22.721Z,-0.40
2018-03-19T21:08:50.183Z,-0.40
2018-03-19T21:11:17.630Z,-0.50
2018-03-19T21:13:45.081Z,-0.50
2018-03-19T21:16:13.296Z,-0.50
2018-03-19T21:18:40.757Z,-0.50
2018-03-19T21:21:08.206Z,-0.50
2018-03-19T21:23:35.663Z,-0.60
2018-03-19T21:26:03.105Z,-0.70
2018-03-19T21:28:30.562Z,-0.60
2018-03-19T21:30:58.005Z,-0.60
2018-03-19T21:33:25.465Z,-0.60
2018-03-19T21:35:52.915Z,-0.60
2018-03-19T21:38:21.355Z,-0.70
2018-03-19T21:40:48.795Z,-0.70
2018-03-19T21:43:16.264Z,-0.70
2018-03-19T21:45:43.712Z,-0.80
2018-03-19T21:48:11.156Z,-0.80
2018-03-19T21:50:38.612Z,-0.80
2018-03-19T21:53:06.070Z,-0.80
2018-03-19T21:55:35.444Z,-0.90
2018-03-19T21:58:03.655Z,-0.80
2018-03-19T22:00:31.107Z,-0.80
2018-03-19T22:02:58.629Z,-0.90
2018-03-19T22:05:27.845Z,-1.00
2018-03-19T22:07:55.345Z,-1.00
2018-03-19T22:10:22.787Z,-0.90
2018-03-19T22:12:50.265Z,-0.90
2018-03-19T22:15:17.729Z,-0.80
2018-03-19T22:17:45.172Z,-0.80
2018-03-19T22:20:12.629Z,-0.90
2018-03-19T22:22:40.074Z,-1.00
2018-03-19T22:25:07.540Z,-0.90
2018-03-19T22:27:34.994Z,-0.90
2018-03-19T22:30:02.449Z,-1.00
2018-03-19T22:32:29.904Z,-0.90
2018-03-19T22:34:57.364Z,-0.90
2018-03-19T22:37:24.822Z,-0.80
2018-03-19T22:39:52.276Z,-0.80
2018-03-19T22:42:19.733Z,-0.80
2018-03-19T22:44:47.210Z,-0.80
2018-03-19T22:47:14.664Z,-0.90
2018-03-19T22:49:42.122Z,-0.90
2018-03-19T22:52:09.569Z,-0.90
2018-03-19T22:54:37.022Z,-1.00
2018-03-19T22:57:04.485Z,-1.00
2018-03-19T22:59:31.938Z,-1.00
2018-03-19T23:01:59.395Z,-1.00
2018-03-19T23:04:38.617Z,-1.00
2018-03-19T23:07:06.078Z,-1.00
2018-03-19T23:09:33.523Z,-1.10
2018-03-19T23:12:01.070Z,-1.10
2018-03-19T23:14:28.516Z,-1.10
2018-03-19T23:16:56.760Z,-1.00
2018-03-19T23:19:24.196Z,-1.10
2018-03-19T23:21:51.644Z,-1.10
2018-03-19T23:24:19.097Z,-1.10
2018-03-19T23:26:46.552Z,-1.10
2018-03-19T23:29:14.086Z,-1.10
2018-03-19T23:31:42.310Z,-1.20
2018-03-19T23:34:09.762Z,-1.20
2018-03-19T23:36:37.220Z,-1.20
2018-03-19T23:39:04.746Z,-1.20
2018-03-19T23:41:32.287Z,-1.10
2018-03-19T23:44:00.507Z,-1.20
2018-03-19T23:46:27.953Z,-1.30
2018-03-19T23:48:55.409Z,-1.20
2018-03-19T23:51:22.853Z,-1.30
2018-03-19T23:53:50.316Z,-1.20
2018-03-19T23:56:17.769Z,-1.20
2018-03-19T23:58:45.226Z,-1.20
